Time;durP1;ratioP1;P1;durP2;ratioP2;P2;SDS_P1;SDS_P2;PMS_P1;PMS_P2;Temp;Humidity;BMP_temperature;BMP_pressure;BME280_temperature;BME280_humidity;BME280_pressure;Samples;Min_cycle;Max_cycle;Signal;HPM_P1;HPM_P2
2021/01/17 00:02:17;;;;;;;9.35;4.63;;;;;;;25.46;32.39;98413.31;4972254;28;20293;-65
2021/01/17 00:04:44;;;;;;;9.38;4.57;;;;;;;25.40;31.37;98412.22;4989215;28;20752;-64
2021/01/17 00:07:11;;;;;;;14.35;5.40;;;;;;;25.38;32.18;98400.84;4991398;28;20225;-65
2021/01/17 00:09:37;;;;;;;9.27;4.88;;;;;;;25.39;32.47;98394.47;4989384;28;20271;-65
2021/01/17 00:12:04;;;;;;;11.23;4.60;;;;;;;25.37;31.69;98390.31;4990128;28;20514;-65
2021/01/17 00:14:31;;;;;;;10.00;4.60;;;;;;;25.34;32.25;98383.47;4989410;28;20197;-64
2021/01/17 00:16:58;;;;;;;9.57;4.38;;;;;;;25.39;31.37;98372.25;4989849;28;20311;-65
2021/01/17 00:19:24;;;;;;;10.32;4.63;;;;;;;25.37;31.41;98369.75;4988890;28;20755;-65
2021/01/17 00:21:51;;;;;;;9.77;4.60;;;;;;;25.34;32.19;98362.06;4987061;28;20229;-62
2021/01/17 00:24:17;;;;;;;10.73;4.45;;;;;;;25.31;31.65;98359.75;4988920;28;20201;-64
2021/01/17 00:26:43;;;;;;;8.00;4.07;;;;;;;25.33;32.00;98352.41;4989244;28;20247;-65
2021/01/17 00:29:09;;;;;;;6.75;4.18;;;;;;;25.34;31.70;98347.88;4988219;28;20228;-65
2021/01/17 00:31:36;;;;;;;9.20;4.20;;;;;;;25.29;31.73;98340.38;4989883;28;20288;-65
2021/01/17 00:34:02;;;;;;;7.00;3.85;;;;;;;25.34;31.35;98343.34;4989271;28;20213;-63
2021/01/17 00:36:28;;;;;;;15.27;4.68;;;;;;;25.44;31.43;98333.19;4991179;28;20216;-65
2021/01/17 00:38:55;;;;;;;10.35;4.00;;;;;;;25.46;31.10;98333.88;4989029;28;20405;-64
2021/01/17 00:41:29;;;;;;;8.48;4.10;;;;;;;25.47;32.19;98332.84;4992430;28;20225;-65
2021/01/17 00:43:55;;;;;;;8.05;4.15;;;;;;;25.52;31.67;98339.50;4992611;28;20208;-65
2021/01/17 00:46:21;;;;;;;7.43;3.85;;;;;;;25.58;31.96;98334.25;4992134;28;20211;-64
2021/01/17 00:48:47;;;;;;;7.65;4.00;;;;;;;25.56;31.93;98335.44;4993086;28;20205;-62
2021/01/17 00:51:13;;;;;;;6.63;3.45;;;;;;;25.55;32.03;98331.13;4993642;28;20348;-65
2021/01/17 00:53:40;;;;;;;7.70;3.95;;;;;;;25.58;31.74;98330.72;4993477;28;20206;-65
2021/01/17 00:56:07;;;;;;;9.48;4.15;;;;;;;25.55;31.70;98325.75;4992114;28;20217;-60
2021/01/17 00:58:33;;;;;;;8.90;3.90;;;;;;;25.57;31.02;98321.88;4991539;28;20350;-61
2021/01/17 01:00:59;;;;;;;7.32;4.13;;;;;;;25.57;31.02;98318.38;4992526;28;20217;-64
2021/01/17 01:03:25;;;;;;;5.85;3.50;;;;;;;25.50;31.98;98315.59;4992753;28;20193;-64
2021/01/17 01:05:51;;;;;;;7.75;3.60;;;;;;;25.47;31.52;98316.78;4992886;28;20278;-64
2021/01/17 01:08:17;;;;;;;6.65;3.42;;;;;;;25.49;31.96;98312.06;4992703;28;20672;-65
2021/01/17 01:10:43;;;;;;;7.15;3.60;;;;;;;25.45;31.63;98315.31;4992701;28;20221;-65
2021/01/17 01:13:10;;;;;;;6.57;3.75;;;;;;;25.45;31.85;98307.28;4992673;28;20201;-63
2021/01/17 01:15:36;;;;;;;6.50;3.63;;;;;;;25.44;31.01;98306.44;4992226;28;20197;-61
2021/01/17 01:18:03;;;;;;;10.07;3.72;;;;;;;25.43;31.85;98304.78;4993521;28;20204;-65
2021/01/17 01:20:29;;;;;;;5.30;3.33;;;;;;;25.45;31.93;98289.38;4992645;28;20291;-64
2021/01/17 01:22:55;;;;;;;4.80;3.03;;;;;;;25.41;31.75;98295.28;4992374;28;20411;-65
2021/01/17 01:25:22;;;;;;;4.93;3.20;;;;;;;25.43;31.21;98283.38;4992673;28;20259;-64
2021/01/17 01:27:48;;;;;;;6.25;3.40;;;;;;;25.38;31.04;98283.09;4993263;28;20602;-65
2021/01/17 01:30:16;;;;;;;6.72;3.53;;;;;;;25.37;31.69;98280.59;4991417;28;20562;-65
2021/01/17 01:32:42;;;;;;;6.72;3.20;;;;;;;25.36;31.97;98284.28;4991935;28;20550;-58
2021/01/17 01:35:10;;;;;;;7.13;3.38;;;;;;;25.34;32.10;98280.97;4992968;28;20201;-65
2021/01/17 01:37:36;;;;;;;7.22;3.53;;;;;;;25.38;32.05;98275.06;4992918;28;20275;-65
2021/01/17 01:40:04;;;;;;;5.57;3.33;;;;;;;25.36;30.87;98277.06;4991656;28;20316;-65
2021/01/17 01:42:30;;;;;;;5.32;2.92;;;;;;;25.35;31.76;98269.22;4993290;28;20248;-64
2021/01/17 01:44:56;;;;;;;7.18;3.00;;;;;;;25.28;31.17;98269.13;4992093;28;20668;-64
2021/01/17 01:47:26;;;;;;;5.63;2.97;;;;;;;25.30;31.31;98261.78;4993647;28;20669;-64
2021/01/17 01:49:52;;;;;;;5.35;3.20;;;;;;;25.32;31.69;98270.44;4994311;28;20214;-65
2021/01/17 01:52:19;;;;;;;6.68;3.22;;;;;;;25.29;32.18;98263.59;4992172;28;20201;-64
2021/01/17 01:54:45;;;;;;;5.70;3.13;;;;;;;25.28;31.58;98263.78;4992355;28;20202;-64
2021/01/17 01:57:12;;;;;;;4.72;2.85;;;;;;;25.36;32.08;98260.19;4991941;28;20561;-60
2021/01/17 01:59:38;;;;;;;6.57;3.20;;;;;;;25.32;31.27;98253.56;4991318;28;20313;-64
2021/01/17 02:02:06;;;;;;;4.80;3.13;;;;;;;25.26;31.64;98252.41;4990653;28;20252;-65
2021/01/17 02:04:35;;;;;;;5.85;2.90;;;;;;;25.25;31.92;98242.75;4992090;28;20212;-65
2021/01/17 02:07:35;;;;;;;4.97;2.70;;;;;;;25.27;31.96;98241.56;4992328;28;20297;-65
2021/01/17 02:10:01;;;;;;;6.07;3.00;;;;;;;25.23;31.93;98250.94;4991864;28;20213;-63
2021/01/17 02:12:30;;;;;;;4.93;2.80;;;;;;;25.09;31.46;98244.53;4991186;28;20220;-65
2021/01/17 02:15:06;;;;;;;3.80;2.60;;;;;;;25.14;31.33;98235.97;4991219;28;20203;-65
2021/01/17 02:17:33;;;;;;;5.75;3.15;;;;;;;25.10;32.06;98235.50;4992241;28;20313;-65
2021/01/17 02:20:08;;;;;;;3.55;2.58;;;;;;;25.13;31.38;98234.34;4988451;28;20229;-65
2021/01/17 02:22:39;;;;;;;10.85;2.90;;;;;;;25.16;31.70;98235.78;4992733;28;20205;-64
2021/01/17 02:25:09;;;;;;;4.68;2.92;;;;;;;25.19;31.89;98230.91;4992980;28;20202;-65
2021/01/17 02:27:37;;;;;;;4.70;2.95;;;;;;;25.23;31.96;98231.38;4992245;28;20217;-65
2021/01/17 02:30:08;;;;;;;4.93;2.95;;;;;;;25.22;31.05;98227.88;4991102;28;20214;-63
2021/01/17 02:32:38;;;;;;;5.03;3.00;;;;;;;25.24;31.09;98228.50;4992255;28;20204;-64
2021/01/17 02:35:05;;;;;;;5.85;3.22;;;;;;;25.19;31.17;98233.59;4992272;28;20202;-65
2021/01/17 02:37:39;;;;;;;4.80;3.00;;;;;;;25.17;31.85;98227.59;4991851;28;20641;-65
2021/01/17 02:40:13;;;;;;;4.07;2.55;;;;;;;25.23;31.61;98226.88;4992529;28;20247;-63
2021/01/17 02:42:41;;;;;;;5.25;3.10;;;;;;;25.23;31.05;98223.34;4992546;28;20256;-64
2021/01/17 02:45:09;;;;;;;4.88;2.53;;;;;;;25.23;31.34;98224.19;4991734;28;20212;-63
2021/01/17 02:47:35;;;;;;;4.70;3.10;;;;;;;25.25;31.04;98226.69;4991950;28;20628;-62
2021/01/17 02:50:02;;;;;;;4.95;2.92;;;;;;;25.29;31.96;98233.34;4991821;28;20275;-63
2021/01/17 02:52:38;;;;;;;3.88;2.60;;;;;;;25.27;31.80;98230.84;4990864;28;20206;-63
2021/01/17 02:55:05;;;;;;;5.28;3.00;;;;;;;25.27;32.01;98232.72;4989830;28;20203;-64
2021/01/17 02:57:34;;;;;;;4.13;2.75;;;;;;;25.25;31.82;98229.34;4992265;28;20213;-64
2021/01/17 03:00:07;;;;;;;4.22;2.50;;;;;;;25.21;31.36;98226.19;4990940;28;20218;-64
2021/01/17 03:02:36;;;;;;;4.97;2.78;;;;;;;25.18;31.34;98234.63;4992318;28;20284;-64
2021/01/17 03:05:04;;;;;;;3.10;2.30;;;;;;;25.22;31.21;98224.38;4991468;28;20205;-62
2021/01/17 03:07:33;;;;;;;4.15;2.55;;;;;;;25.22;32.10;98225.19;4991645;28;20211;-65
2021/01/17 03:10:01;;;;;;;4.35;2.70;;;;;;;25.22;31.84;98232.41;4991223;28;20235;-60
2021/01/17 03:12:27;;;;;;;4.55;2.63;;;;;;;25.17;31.43;98224.91;4991290;28;20205;-64
2021/01/17 03:14:55;;;;;;;3.92;2.70;;;;;;;25.17;31.92;98221.41;4989015;28;20201;-65
2021/01/17 03:17:21;;;;;;;4.82;2.97;;;;;;;25.15;31.84;98218.06;4990669;28;20213;-62
2021/01/17 03:19:47;;;;;;;4.28;2.63;;;;;;;25.18;31.00;98226.59;4990360;28;20356;-64
2021/01/17 03:22:13;;;;;;;5.55;2.72;;;;;;;25.19;31.47;98216.72;4990369;28;20576;-63
2021/01/17 03:24:39;;;;;;;3.40;2.50;;;;;;;25.11;32.12;98217.63;4988941;28;20289;-64
2021/01/17 03:27:05;;;;;;;3.97;2.70;;;;;;;25.10;31.85;98214.13;4989563;28;20199;-65
2021/01/17 03:29:31;;;;;;;4.15;2.78;;;;;;;25.10;32.22;98211.44;4990141;28;20308;-65
2021/01/17 03:31:58;;;;;;;4.53;2.60;;;;;;;25.11;30.90;98210.44;4989654;28;20197;-65
2021/01/17 03:34:24;;;;;;;5.95;2.85;;;;;;;25.09;31.08;98206.28;4990142;28;20194;-64
2021/01/17 03:36:51;;;;;;;5.57;2.75;;;;;;;25.15;32.04;98200.19;4990577;28;20296;-62
2021/01/17 03:39:17;;;;;;;4.38;2.63;;;;;;;25.21;30.83;98193.28;4990301;28;20325;-64
2021/01/17 03:41:43;;;;;;;3.80;2.53;;;;;;;25.16;30.99;98191.13;4989707;28;20221;-64
2021/01/17 03:44:09;;;;;;;7.53;2.83;;;;;;;25.21;31.80;98190.59;4991135;28;20288;-64
2021/01/17 03:46:35;;;;;;;4.63;2.50;;;;;;;25.21;31.15;98187.91;4990151;28;20547;-65
2021/01/17 03:49:02;;;;;;;4.72;2.90;;;;;;;25.25;31.01;98181.19;4988082;28;20228;-64
2021/01/17 03:51:28;;;;;;;4.82;2.70;;;;;;;25.24;31.37;98195.59;4990747;28;20205;-64
2021/01/17 03:53:54;;;;;;;4.70;3.15;;;;;;;25.27;31.10;98195.25;4990823;28;20200;-62
2021/01/17 03:56:21;;;;;;;4.97;2.95;;;;;;;25.21;31.56;98190.59;4976506;28;20618;-64
2021/01/17 03:58:47;;;;;;;3.55;2.60;;;;;;;25.23;30.75;98191.22;4989875;28;20226;-61
2021/01/17 04:01:13;;;;;;;5.07;2.65;;;;;;;25.26;31.02;98197.09;4990312;28;20306;-63
2021/01/17 04:03:39;;;;;;;2.85;2.30;;;;;;;25.24;31.36;98193.72;4989295;28;20209;-65
2021/01/17 04:06:07;;;;;;;5.22;2.70;;;;;;;25.25;30.71;98197.25;4989768;28;20272;-64
2021/01/17 04:08:33;;;;;;;4.25;2.33;;;;;;;25.22;31.31;98192.28;4988316;28;20309;-64
2021/01/17 04:10:59;;;;;;;4.57;2.30;;;;;;;25.18;31.28;98188.28;4972892;28;20695;-62
2021/01/17 04:13:25;;;;;;;3.28;2.30;;;;;;;25.22;30.71;98192.28;4968637;28;20283;-64
2021/01/17 04:15:52;;;;;;;4.00;2.35;;;;;;;25.21;31.46;98187.91;4983425;28;20209;-64
2021/01/17 04:18:18;;;;;;;4.20;2.38;;;;;;;25.21;31.39;98185.25;4989479;28;20619;-64
2021/01/17 04:20:44;;;;;;;3.90;2.22;;;;;;;25.19;31.46;98189.97;4988148;28;20237;-64
2021/01/17 04:23:13;;;;;;;3.65;2.38;;;;;;;25.12;31.09;98193.34;4990094;28;20544;-64
2021/01/17 04:25:39;;;;;;;2.88;2.10;;;;;;;25.14;30.73;98187.81;4989936;28;20201;-65
2021/01/17 04:28:10;;;;;;;4.32;2.47;;;;;;;25.13;30.54;98191.53;4989466;28;20205;-65
2021/01/17 04:30:36;;;;;;;2.92;2.25;;;;;;;25.11;30.50;98191.72;4990685;28;20730;-65
2021/01/17 04:33:03;;;;;;;4.03;2.58;;;;;;;25.14;31.09;98192.34;4989578;28;20260;-64
2021/01/17 04:35:29;;;;;;;3.83;2.60;;;;;;;25.12;30.81;98198.72;4989350;28;20288;-63
2021/01/17 04:37:56;;;;;;;3.60;2.63;;;;;;;25.12;30.37;98201.38;4991075;28;20371;-64
2021/01/17 04:40:24;;;;;;;4.20;2.40;;;;;;;25.08;30.27;98205.44;4991301;28;20229;-64
2021/01/17 04:43:03;;;;;;;5.32;2.55;;;;;;;25.11;31.19;98204.25;4989345;28;20198;-64
2021/01/17 04:45:31;;;;;;;5.97;2.55;;;;;;;25.07;30.77;98203.78;4991609;28;20205;-63
2021/01/17 04:47:58;;;;;;;4.47;2.33;;;;;;;25.12;30.59;98212.09;4989694;28;20311;-64
2021/01/17 04:50:27;;;;;;;4.13;2.40;;;;;;;25.11;31.13;98207.75;4989473;28;20223;-64
2021/01/17 04:52:59;;;;;;;3.55;2.45;;;;;;;25.09;31.00;98212.44;4988428;28;20205;-60
2021/01/17 04:55:27;;;;;;;5.57;2.30;;;;;;;25.11;31.15;98209.59;4989970;28;20201;-64
2021/01/17 04:58:04;;;;;;;4.90;2.45;;;;;;;25.09;31.03;98212.44;4990035;28;20213;-64
2021/01/17 05:00:32;;;;;;;4.65;2.60;;;;;;;25.15;31.06;98212.72;4990186;28;20224;-65
2021/01/17 05:03:18;;;;;;;3.63;2.40;;;;;;;25.13;30.19;98212.94;4988993;28;20194;-64
2021/01/17 05:05:47;;;;;;;3.92;2.35;;;;;;;25.14;30.04;98213.75;4989893;28;20209;-60
2021/01/17 05:08:31;;;;;;;3.70;2.25;;;;;;;25.18;31.11;98215.03;4981848;28;20208;-63
2021/01/17 05:11:03;;;;;;;3.22;2.17;;;;;;;25.14;30.88;98213.75;4990478;28;20224;-64
2021/01/17 05:13:38;;;;;;;4.13;2.63;;;;;;;25.12;30.09;98217.44;4988774;28;20201;-65
2021/01/17 05:16:07;;;;;;;5.50;2.58;;;;;;;25.18;31.00;98217.72;4989866;28;20717;-64
2021/01/17 05:18:34;;;;;;;5.32;2.88;;;;;;;25.11;30.81;98217.63;4989755;28;20553;-64
2021/01/17 05:21:02;;;;;;;3.92;2.30;;;;;;;25.09;30.13;98217.78;4988456;28;20320;-64
2021/01/17 05:23:39;;;;;;;3.40;2.20;;;;;;;25.09;31.02;98216.97;4988681;28;20208;-65
2021/01/17 05:26:06;;;;;;;2.85;2.20;;;;;;;25.05;30.43;98219.19;4990642;28;20300;-65
2021/01/17 05:28:33;;;;;;;3.22;2.15;;;;;;;25.05;30.37;98229.88;4993993;28;20212;-63
2021/01/17 05:31:00;;;;;;;6.43;2.40;;;;;;;25.03;30.22;98218.53;4993268;28;20215;-59
2021/01/17 05:33:30;;;;;;;2.97;2.13;;;;;;;25.08;30.88;98224.19;4991394;28;20205;-60
2021/01/17 05:35:58;;;;;;;4.13;2.40;;;;;;;25.10;30.22;98226.66;4993543;28;20209;-61
2021/01/17 05:38:25;;;;;;;3.40;2.10;;;;;;;25.07;30.78;98225.19;4992960;28;20840;-65
2021/01/17 05:40:51;;;;;;;3.85;2.20;;;;;;;25.11;30.95;98231.84;4992469;28;20233;-65
2021/01/17 05:43:18;;;;;;;3.30;2.40;;;;;;;25.17;31.04;98224.91;4992010;28;20202;-64
2021/01/17 05:45:45;;;;;;;3.05;2.10;;;;;;;25.15;30.93;98236.81;4992794;28;20209;-63
2021/01/17 05:48:11;;;;;;;3.22;2.30;;;;;;;25.21;30.13;98241.44;4992444;28;20193;-65
2021/01/17 05:50:43;;;;;;;3.72;2.35;;;;;;;25.19;30.51;98244.28;4990372;28;20671;-65
2021/01/17 05:53:09;;;;;;;3.70;2.30;;;;;;;25.28;29.95;98242.38;4993163;28;20258;-65
2021/01/17 05:55:37;;;;;;;3.33;2.10;;;;;;;25.27;30.68;98248.75;4992462;28;20289;-64
2021/01/17 05:58:31;;;;;;;4.47;2.70;;;;;;;25.28;29.72;98245.91;4993312;28;20209;-64
2021/01/17 06:00:58;;;;;;;3.67;2.33;;;;;;;25.24;29.91;98247.25;4968957;28;20265;-63
2021/01/17 06:03:26;;;;;;;4.20;2.63;;;;;;;25.24;30.08;98251.78;4993125;28;20212;-65
2021/01/17 06:05:59;;;;;;;3.33;2.50;;;;;;;25.23;29.79;98256.28;4992881;28;20201;-65
2021/01/17 06:08:26;;;;;;;5.32;2.70;;;;;;;25.26;30.48;98250.63;4989362;28;20213;-65
2021/01/17 06:10:54;;;;;;;2.75;2.38;;;;;;;25.28;29.72;98253.94;4993696;28;20417;-64
2021/01/17 06:13:24;;;;;;;3.75;2.28;;;;;;;25.26;30.15;98252.41;4994416;28;20205;-64
2021/01/17 06:15:52;;;;;;;3.70;2.35;;;;;;;25.31;30.31;98242.00;4993119;28;20209;-65
2021/01/17 06:18:19;;;;;;;3.22;2.30;;;;;;;25.35;30.21;98243.31;4992071;28;20239;-65
2021/01/17 06:20:46;;;;;;;4.10;2.60;;;;;;;25.34;30.25;98243.50;4992172;28;20313;-64
2021/01/17 06:23:19;;;;;;;3.63;2.53;;;;;;;25.30;30.59;98240.38;4990919;28;20550;-64
2021/01/17 06:25:45;;;;;;;4.32;2.65;;;;;;;25.26;29.79;98236.34;4993059;28;20198;-62
2021/01/17 06:28:13;;;;;;;5.88;2.67;;;;;;;25.29;29.96;98244.06;4992127;28;20231;-64
2021/01/17 06:30:40;;;;;;;3.50;2.58;;;;;;;25.28;30.58;98240.56;4992294;28;20331;-65
2021/01/17 06:33:08;;;;;;;2.85;2.17;;;;;;;25.26;30.35;98239.91;4991517;28;20753;-65
2021/01/17 06:35:37;;;;;;;3.60;2.22;;;;;;;25.10;29.98;98245.41;4991803;28;20206;-66
2021/01/17 06:38:19;;;;;;;4.78;2.85;;;;;;;25.17;30.46;98240.16;4991354;28;20194;-63
2021/01/17 06:40:46;;;;;;;3.58;2.53;;;;;;;25.25;29.73;98243.56;4989672;28;20328;-65
2021/01/17 06:43:14;;;;;;;4.13;2.60;;;;;;;25.27;29.43;98243.41;4992296;28;20201;-64
2021/01/17 06:45:41;;;;;;;3.30;2.58;;;;;;;25.25;29.72;98240.88;4991175;28;20197;-64
2021/01/17 06:48:20;;;;;;;4.40;2.67;;;;;;;25.28;30.82;98247.72;4992299;28;20205;-63
2021/01/17 06:50:46;;;;;;;4.18;2.60;;;;;;;25.31;30.82;98247.38;4992036;28;20225;-65
2021/01/17 06:53:21;;;;;;;4.20;2.53;;;;;;;25.39;30.82;98252.63;4989444;28;20288;-61
2021/01/17 06:55:47;;;;;;;3.33;2.33;;;;;;;25.49;30.08;98255.03;4991566;28;20243;-65
2021/01/17 06:58:17;;;;;;;3.88;2.58;;;;;;;25.53;30.42;98242.97;4989774;28;20223;-65
2021/01/17 07:00:45;;;;;;;4.00;2.63;;;;;;;25.60;29.62;98243.06;4990880;28;20233;-65
2021/01/17 07:03:16;;;;;;;4.50;2.58;;;;;;;25.72;29.82;98252.25;4990555;28;20205;-65
2021/01/17 07:05:58;;;;;;;4.57;2.42;;;;;;;25.73;29.29;98253.09;4991030;28;20321;-65
2021/01/17 07:08:52;;;;;;;3.58;2.40;;;;;;;25.71;30.25;98258.63;4992906;28;20208;-65
2021/01/17 07:11:32;;;;;;;4.57;2.83;;;;;;;25.76;29.38;98260.75;4992455;28;20574;-65
2021/01/17 07:14:06;;;;;;;3.70;2.53;;;;;;;25.80;29.58;98260.19;4991200;28;20300;-65
2021/01/17 07:16:34;;;;;;;3.88;2.67;;;;;;;25.82;30.16;98260.00;4991162;28;20201;-66
2021/01/17 07:19:06;;;;;;;3.85;2.28;;;;;;;25.77;30.13;98260.56;4992083;28;20312;-65
2021/01/17 07:21:41;;;;;;;3.75;2.30;;;;;;;25.82;29.70;98260.84;4990243;28;20519;-63
2021/01/17 07:24:09;;;;;;;3.65;2.35;;;;;;;25.83;29.83;98267.88;4991186;28;20288;-62
2021/01/17 07:26:47;;;;;;;5.35;3.10;;;;;;;25.90;29.40;98267.13;4989622;28;20193;-64
2021/01/17 07:29:17;;;;;;;3.63;2.65;;;;;;;25.83;29.91;98275.91;4992019;28;20223;-63
2021/01/17 07:31:45;;;;;;;4.05;2.95;;;;;;;25.82;29.40;98273.41;4990647;28;20349;-64
2021/01/17 07:34:13;;;;;;;4.38;2.70;;;;;;;25.89;28.84;98278.84;4990594;28;20284;-63
2021/01/17 07:36:47;;;;;;;3.97;2.58;;;;;;;25.93;30.88;98277.44;4990816;28;20296;-64
2021/01/17 07:39:17;;;;;;;4.28;3.05;;;;;;;25.85;29.61;98276.53;4991035;28;20784;-63
2021/01/17 07:41:47;;;;;;;5.55;3.28;;;;;;;25.81;30.00;98282.44;4990951;28;20542;-64
2021/01/17 07:44:16;;;;;;;5.13;3.38;;;;;;;25.81;29.22;98280.63;4989934;28;20665;-62
2021/01/17 07:46:43;;;;;;;4.95;3.40;;;;;;;25.88;29.53;98293.25;4990977;28;20223;-64
2021/01/17 07:49:13;;;;;;;6.20;3.30;;;;;;;25.90;29.38;98281.34;4991340;28;20229;-64
2021/01/17 07:51:39;;;;;;;5.35;3.25;;;;;;;25.88;29.79;98290.56;4988609;28;20597;-64
2021/01/17 07:54:13;;;;;;;8.35;3.45;;;;;;;25.91;29.03;98298.22;4989107;28;20206;-64
2021/01/17 07:56:39;;;;;;;6.30;2.92;;;;;;;25.92;28.46;98297.22;4992277;28;20209;-64
2021/01/17 07:59:07;;;;;;;5.35;2.83;;;;;;;26.01;28.50;98301.47;4990045;28;20304;-64
2021/01/17 08:01:49;;;;;;;6.20;3.28;;;;;;;25.94;29.46;98295.19;4988317;28;20225;-64
2021/01/17 08:04:26;;;;;;;6.05;2.63;;;;;;;25.69;30.17;98298.16;4980505;28;20220;-65
2021/01/17 08:06:55;;;;;;;6.47;2.58;;;;;;;25.91;29.94;98306.25;4990782;28;20278;-71
2021/01/17 08:09:47;;;;;;;7.63;2.58;;;;;;;25.91;29.20;98307.09;4996361;28;20212;-71
2021/01/17 08:12:33;;;;;;;4.40;2.20;;;;;;;25.94;29.54;98313.94;4985503;28;20194;-71
2021/01/17 08:15:21;;;;;;;6.75;2.75;;;;;;;25.96;30.15;98309.25;4992572;28;20286;-69
2021/01/17 08:17:48;;;;;;;3.05;2.35;;;;;;;25.94;30.96;98305.91;4990259;28;20596;-69
2021/01/17 08:20:36;;;;;;;4.20;2.47;;;;;;;25.96;29.18;98314.59;4989131;28;20225;-68
2021/01/17 08:23:12;;;;;;;2.63;2.10;;;;;;;26.01;30.33;98318.41;4977121;28;20723;-66
2021/01/17 08:25:50;;;;;;;3.33;2.10;;;;;;;26.01;30.61;98312.19;4988661;28;20304;-69
2021/01/17 08:28:46;;;;;;;6.85;2.90;;;;;;;26.11;29.74;98318.09;4985525;28;20228;-71
2021/01/17 08:31:42;;;;;;;4.32;2.53;;;;;;;26.01;28.99;98314.88;4990162;28;20274;-69
2021/01/17 08:34:16;;;;;;;10.68;2.28;;;;;;;26.15;29.98;98314.03;4968381;28;20210;-68
2021/01/17 08:36:45;;;;;;;9.95;3.92;;;;;;;26.14;30.25;98320.41;4989733;28;20328;-68
2021/01/17 08:39:12;;;;;;;10.18;2.45;;;;;;;26.04;30.29;98317.19;4989780;28;20217;-68
2021/01/17 08:41:41;;;;;;;6.13;1.88;;;;;;;26.11;30.76;98318.09;4989166;28;20665;-70
2021/01/17 08:44:09;;;;;;;12.70;8.30;;;;;;;25.74;27.42;98322.53;4989968;28;20227;-70
2021/01/17 08:46:37;;;;;;;11.43;5.18;;;;;;;25.92;29.30;98326.69;4990691;28;20201;-73
2021/01/17 08:49:05;;;;;;;9.50;3.17;;;;;;;25.93;30.11;98331.00;4989728;28;20217;-73
2021/01/17 08:51:31;;;;;;;8.68;3.08;;;;;;;26.08;29.92;98339.06;4990893;28;20224;-67
2021/01/17 08:54:20;;;;;;;5.88;2.67;;;;;;;26.17;31.25;98338.78;4986740;28;20303;-71
2021/01/17 08:56:47;;;;;;;6.43;2.58;;;;;;;26.25;31.32;98342.38;4990746;28;20210;-72
2021/01/17 08:59:32;;;;;;;7.35;2.55;;;;;;;26.27;30.99;98351.06;4991194;28;20621;-72
2021/01/17 09:02:00;;;;;;;13.30;2.95;;;;;;;26.25;30.77;98353.94;4998402;28;20209;-70
2021/01/17 09:04:27;;;;;;;4.78;2.78;;;;;;;26.38;30.53;98355.97;4992958;28;20201;-68
2021/01/17 09:06:54;;;;;;;8.15;2.63;;;;;;;26.34;31.10;98357.34;4993157;28;20201;-67
2021/01/17 09:09:22;;;;;;;9.20;2.13;;;;;;;26.26;31.22;98357.44;4993539;28;20232;-67
2021/01/17 09:11:49;;;;;;;5.65;2.58;;;;;;;26.15;30.69;98358.75;4992773;28;20241;-68
2021/01/17 09:14:36;;;;;;;8.07;2.60;;;;;;;26.15;31.17;98359.59;4993217;28;20197;-65
2021/01/17 09:17:03;;;;;;;7.68;2.03;;;;;;;26.21;30.90;98372.25;4993232;28;20198;-68
2021/01/17 09:19:31;;;;;;;5.28;2.22;;;;;;;26.17;31.95;98364.75;4991994;28;20217;-68
2021/01/17 09:21:59;;;;;;;3.70;1.85;;;;;;;26.14;31.44;98365.94;4993585;28;20264;-68
2021/01/17 09:24:28;;;;;;;6.18;2.15;;;;;;;26.05;31.59;98364.41;4992542;28;20213;-68
2021/01/17 09:26:56;;;;;;;4.47;1.95;;;;;;;26.22;32.56;98371.22;4991412;28;20202;-67
2021/01/17 09:29:33;;;;;;;11.35;2.10;;;;;;;26.15;33.18;98372.97;4992164;28;20319;-68
2021/01/17 09:32:05;;;;;;;8.45;2.10;;;;;;;26.15;33.72;98372.97;4992154;28;20200;-70
2021/01/17 09:34:34;;;;;;;10.90;2.60;;;;;;;26.15;33.25;98372.97;4994224;28;20545;-69
2021/01/17 09:37:02;;;;;;;9.18;2.50;;;;;;;26.03;34.11;98375.31;4993647;28;20202;-70
2021/01/17 09:39:37;;;;;;;7.45;2.80;;;;;;;26.05;33.71;98377.78;4995000;28;20304;-67
2021/01/17 09:42:06;;;;;;;11.30;2.53;;;;;;;26.04;33.98;98376.13;4993362;28;20668;-66
2021/01/17 09:44:33;;;;;;;7.32;2.67;;;;;;;26.01;33.00;98382.69;4992829;28;20707;-67
2021/01/17 09:47:00;;;;;;;8.93;2.90;;;;;;;25.98;33.40;98384.88;4993987;28;20403;-69
2021/01/17 09:49:28;;;;;;;9.65;2.83;;;;;;;25.97;33.31;98385.91;4994879;28;20224;-67
2021/01/17 09:51:56;;;;;;;6.80;2.50;;;;;;;25.99;32.54;98389.25;4994388;28;20201;-66
2021/01/17 09:54:23;;;;;;;7.25;2.45;;;;;;;25.95;33.25;98393.28;4975341;28;20299;-65
2021/01/17 09:56:51;;;;;;;6.13;2.63;;;;;;;25.99;32.60;98391.91;4975285;28;20222;-62
2021/01/17 09:59:21;;;;;;;9.90;2.55;;;;;;;25.95;32.40;98404.00;4986785;28;20236;-69
2021/01/17 10:01:49;;;;;;;4.88;2.78;;;;;;;25.85;33.15;98393.56;4994566;28;20595;-66
2021/01/17 10:04:27;;;;;;;10.77;2.30;;;;;;;25.87;32.33;98396.06;4993133;28;20248;-67
2021/01/17 10:06:55;;;;;;;7.05;2.67;;;;;;;25.89;32.87;98396.69;4993299;28;20553;-68
2021/01/17 10:09:23;;;;;;;5.45;2.70;;;;;;;25.92;32.17;98404.38;4994705;28;20240;-68
2021/01/17 10:11:59;;;;;;;10.95;2.55;;;;;;;25.96;32.83;98394.97;5000648;28;20641;-69
2021/01/17 10:14:28;;;;;;;12.70;3.28;;;;;;;25.89;32.78;98399.38;4998239;28;20260;-68
2021/01/17 10:16:55;;;;;;;7.28;3.08;;;;;;;25.95;31.84;98404.84;5000176;28;20202;-68
2021/01/17 10:19:30;;;;;;;7.07;2.63;;;;;;;25.98;32.26;98404.50;5003481;28;20700;-65
2021/01/17 10:21:58;;;;;;;6.07;2.42;;;;;;;25.94;31.80;98400.47;4994800;28;20711;-66
2021/01/17 10:24:26;;;;;;;7.65;2.63;;;;;;;25.93;32.61;98400.66;4993309;28;20664;-69
2021/01/17 10:26:56;;;;;;;7.28;2.30;;;;;;;25.82;32.19;98400.09;4991216;28;20288;-68
2021/01/17 10:29:30;;;;;;;4.85;2.70;;;;;;;25.84;31.81;98395.38;4992771;28;20225;-66
2021/01/17 10:31:59;;;;;;;6.32;2.72;;;;;;;25.81;31.38;98397.59;4985469;28;20194;-67
2021/01/17 10:34:28;;;;;;;7.18;2.90;;;;;;;25.91;31.71;98408.03;4993232;28;20282;-69
2021/01/17 10:36:59;;;;;;;3.67;2.33;;;;;;;25.77;32.47;98399.81;4992439;28;20205;-69
2021/01/17 10:39:25;;;;;;;3.97;2.10;;;;;;;25.73;31.92;98401.22;4990753;28;20590;-68
2021/01/17 10:42:05;;;;;;;6.20;3.10;;;;;;;25.88;30.92;98405.72;4992193;28;20308;-68
2021/01/17 10:44:34;;;;;;;7.15;3.25;;;;;;;25.78;31.47;98406.00;4992217;28;20284;-68
2021/01/17 10:47:10;;;;;;;5.47;2.47;;;;;;;25.67;30.93;98401.94;4992282;28;20208;-68
2021/01/17 10:49:38;;;;;;;7.55;2.90;;;;;;;25.64;32.25;98396.94;4991908;28;20223;-69
2021/01/17 10:52:12;;;;;;;4.35;2.50;;;;;;;25.52;32.26;98393.03;4991789;28;20201;-68
2021/01/17 10:54:42;;;;;;;4.18;2.30;;;;;;;25.50;31.92;98395.91;4992514;28;20197;-69
2021/01/17 10:57:09;;;;;;;6.43;1.80;;;;;;;25.48;32.55;98390.72;4989406;28;20205;-68
2021/01/17 10:59:38;;;;;;;5.70;2.28;;;;;;;25.55;32.45;98398.03;4990501;28;20225;-69
2021/01/17 11:02:04;;;;;;;5.20;2.05;;;;;;;25.57;32.16;98401.34;4978797;28;20225;-69
2021/01/17 11:04:38;;;;;;;6.35;1.83;;;;;;;25.57;32.38;98399.50;4989196;28;20204;-68
2021/01/17 11:07:05;;;;;;;8.95;2.22;;;;;;;25.67;33.45;98400.06;4992560;28;20311;-68
2021/01/17 11:09:31;;;;;;;8.30;2.80;;;;;;;25.67;32.21;98399.25;4990746;28;20304;-68
2021/01/17 11:11:58;;;;;;;6.75;2.33;;;;;;;25.75;32.63;98396.50;4990970;28;20247;-68
2021/01/17 11:14:30;;;;;;;20.20;2.53;;;;;;;25.83;32.51;98403.59;4985358;28;20289;-67
2021/01/17 11:16:58;;;;;;;28.00;3.00;;;;;;;25.87;32.74;98404.09;4984805;28;20519;-68
2021/01/17 11:19:39;;;;;;;10.63;2.95;;;;;;;25.92;31.92;98402.50;4989039;28;20311;-68
2021/01/17 11:22:06;;;;;;;11.25;2.47;;;;;;;25.70;32.71;98406.91;4990966;28;20217;-72
2021/01/17 11:24:37;;;;;;;16.48;2.65;;;;;;;25.75;31.95;98399.16;4990730;28;20205;-72
2021/01/17 11:27:14;;;;;;;29.40;3.97;;;;;;;25.74;32.02;98402.84;4991478;28;20297;-68
2021/01/17 11:29:42;;;;;;;14.23;3.65;;;;;;;25.75;31.61;98404.53;4990149;28;20312;-71
2021/01/17 11:32:10;;;;;;;13.30;2.90;;;;;;;25.68;32.32;98398.25;4991173;28;20268;-71
2021/01/17 11:34:38;;;;;;;11.38;2.92;;;;;;;25.71;32.02;98408.56;4991800;28;20198;-71
2021/01/17 11:37:06;;;;;;;8.55;2.42;;;;;;;25.79;31.86;98410.34;4991753;28;20343;-71
2021/01/17 11:39:32;;;;;;;8.45;2.58;;;;;;;25.88;32.79;98413.75;4992181;28;20629;-70
2021/01/17 11:41:59;;;;;;;11.38;2.15;;;;;;;25.93;32.78;98411.38;4992094;28;20248;-70
2021/01/17 11:44:26;;;;;;;7.45;2.08;;;;;;;25.88;32.71;98409.25;4993794;28;20296;-72